createdAt,value
2023-05-05T00:01:55.560Z,69.57
2023-05-05T00:04:24.347Z,69.34
2023-05-05T00:06:51.393Z,69.36
2023-05-05T00:09:18.473Z,69.33
2023-05-05T00:11:46.169Z,69.32
2023-05-05T00:14:13.364Z,69.09
2023-05-05T00:16:40.642Z,69.33
2023-05-05T00:19:07.583Z,69.28
2023-05-05T00:21:36.240Z,69.18
2023-05-05T00:24:03.579Z,69.53
2023-05-05T00:26:31.043Z,69.45
2023-05-05T00:28:58.046Z,69.09
2023-05-05T00:31:25.386Z,69.22
2023-05-05T00:33:52.601Z,69.20
2023-05-05T00:36:19.788Z,69.22
2023-05-05T00:38:48.089Z,69.01
2023-05-05T00:41:15.412Z,69.05
2023-05-05T00:43:42.442Z,68.98
2023-05-05T00:46:27.912Z,68.91
2023-05-05T00:48:55.274Z,69.34
2023-05-05T00:51:22.973Z,69.37
2023-05-05T00:53:51.533Z,69.51
2023-05-05T00:56:20.935Z,69.28
2023-05-05T00:58:49.026Z,69.43
2023-05-05T01:01:17.477Z,69.05
2023-05-05T01:03:44.937Z,69.42
2023-05-05T01:06:28.070Z,69.56
2023-05-05T01:09:05.169Z,69.07
2023-05-05T01:11:42.199Z,69.09
2023-05-05T01:14:14.310Z,69.83
2023-05-05T01:16:53.540Z,69.63
2023-05-05T01:19:43.371Z,69.86
2023-05-05T01:22:15.050Z,69.92
2023-05-05T01:24:59.780Z,69.81
2023-05-05T01:27:49.988Z,69.33
2023-05-05T01:30:41.698Z,69.27
2023-05-05T01:33:14.453Z,68.99
2023-05-05T01:35:45.966Z,68.77
2023-05-05T01:38:17.108Z,69.05
2023-05-05T01:40:48.256Z,69.07
2023-05-05T01:43:19.559Z,69.06
2023-05-05T01:45:48.094Z,68.85
2023-05-05T01:48:19.665Z,69.43
2023-05-05T01:50:48.359Z,69.22
2023-05-05T01:53:17.602Z,68.94
2023-05-05T01:55:46.048Z,68.76
2023-05-05T01:58:14.959Z,68.85
2023-05-05T02:00:42.878Z,69.10
2023-05-05T02:03:13.509Z,69.60
2023-05-05T02:05:43.642Z,69.91
2023-05-05T02:08:12.687Z,69.91
2023-05-05T02:10:43.493Z,69.92
2023-05-05T02:13:13.000Z,70.26
2023-05-05T02:15:42.402Z,70.12
2023-05-05T02:18:10.054Z,70.49
2023-05-05T02:20:38.491Z,70.03
2023-05-05T02:23:08.506Z,70.17
2023-05-05T02:25:40.106Z,70.38
2023-05-05T02:28:13.230Z,70.44
2023-05-05T02:30:41.759Z,70.30
2023-05-05T02:33:11.787Z,69.98
2023-05-05T02:35:40.944Z,69.88
2023-05-05T02:38:13.322Z,69.64
2023-05-05T02:40:44.331Z,69.78
2023-05-05T02:43:15.906Z,69.89
2023-05-05T02:45:43.023Z,69.65
2023-05-05T02:48:13.056Z,69.46
2023-05-05T02:50:40.298Z,69.25
2023-05-05T02:53:09.497Z,69.56
2023-05-05T02:55:42.996Z,69.72
2023-05-05T02:58:20.784Z,69.50
2023-05-05T03:00:55.708Z,69.06
2023-05-05T03:03:29.588Z,69.14
2023-05-05T03:06:03.983Z,69.18
2023-05-05T03:08:37.119Z,69.39
2023-05-05T03:11:06.525Z,69.30
2023-05-05T03:13:36.721Z,69.10
2023-05-05T03:16:07.682Z,68.85
2023-05-05T03:18:37.795Z,69.40
2023-05-05T03:21:08.666Z,69.29
2023-05-05T03:23:37.898Z,69.54
2023-05-05T03:26:04.730Z,69.41
2023-05-05T03:28:32.175Z,69.09
2023-05-05T03:30:59.155Z,69.28
2023-05-05T03:33:26.610Z,69.59
2023-05-05T03:35:53.548Z,69.78
2023-05-05T03:38:21.000Z,69.85
2023-05-05T03:40:49.412Z,69.84
2023-05-05T03:43:16.958Z,69.75
2023-05-05T03:45:43.850Z,69.73
2023-05-05T03:48:13.802Z,69.32
2023-05-05T03:50:40.654Z,69.52
2023-05-05T03:53:07.815Z,69.66
2023-05-05T03:55:35.247Z,69.49
2023-05-05T03:58:04.004Z,69.54
2023-05-05T04:00:30.974Z,68.92
2023-05-05T04:02:58.279Z,68.62
2023-05-05T04:05:26.293Z,68.66
2023-05-05T04:07:53.558Z,68.77
2023-05-05T04:10:21.459Z,68.89
2023-05-05T04:12:48.937Z,69.37
2023-05-05T04:15:17.343Z,69.40
2023-05-05T04:17:44.685Z,69.82
2023-05-05T04:20:12.190Z,69.73
2023-05-05T04:22:39.636Z,69.77
2023-05-05T04:25:07.367Z,69.63
2023-05-05T04:27:34.806Z,69.99
2023-05-05T04:30:01.875Z,69.59
2023-05-05T04:32:30.528Z,69.96
2023-05-05T04:34:57.509Z,68.83
2023-05-05T04:37:28.445Z,68.58
2023-05-05T04:39:55.473Z,67.16
2023-05-05T04:42:22.961Z,66.72
2023-05-05T04:44:49.880Z,66.83
2023-05-05T04:47:17.119Z,63.93
2023-05-05T04:49:45.548Z,61.97
2023-05-05T04:52:13.885Z,60.32
2023-05-05T04:54:40.966Z,57.46
2023-05-05T04:57:08.156Z,55.59
2023-05-05T04:59:35.298Z,53.46
2023-05-05T05:02:02.999Z,51.35
2023-05-05T05:04:30.130Z,49.51
2023-05-05T05:06:59.368Z,46.43
2023-05-05T05:09:26.428Z,46.04
2023-05-05T05:11:53.619Z,44.86
2023-05-05T05:14:20.723Z,42.48
2023-05-05T05:16:52.155Z,41.74
2023-05-05T05:19:20.134Z,41.92
2023-05-05T05:21:47.512Z,41.47
2023-05-05T05:24:16.342Z,41.63
2023-05-05T05:26:43.547Z,41.02
2023-05-05T05:29:10.564Z,42.23
2023-05-05T05:31:37.850Z,44.11
2023-05-05T05:34:04.839Z,44.51
2023-05-05T05:36:32.134Z,45.48
2023-05-05T05:38:59.128Z,45.71
2023-05-05T05:41:27.884Z,46.60
2023-05-05T05:43:54.984Z,47.15
2023-05-05T05:46:22.284Z,47.76
2023-05-05T05:48:49.318Z,48.53
2023-05-05T05:51:16.554Z,48.41
2023-05-05T05:53:43.501Z,48.67
2023-05-05T05:56:11.407Z,48.78
2023-05-05T05:58:40.615Z,49.12
2023-05-05T06:01:07.853Z,49.66
2023-05-05T06:03:36.188Z,49.66
2023-05-05T06:06:03.770Z,49.44
2023-05-05T06:08:30.980Z,49.61
2023-05-05T06:10:59.206Z,49.47
2023-05-05T06:13:26.448Z,48.72
2023-05-05T06:15:55.251Z,49.54
2023-05-05T06:18:22.324Z,49.93
2023-05-05T06:20:51.005Z,50.44
2023-05-05T06:23:18.341Z,49.68
2023-05-05T06:25:46.909Z,48.38
2023-05-05T06:28:14.096Z,47.11
2023-05-05T06:30:41.593Z,48.77
2023-05-05T06:33:10.107Z,48.30
2023-05-05T06:35:37.406Z,47.87
2023-05-05T06:38:04.536Z,48.26
2023-05-05T06:40:31.925Z,47.56
2023-05-05T06:42:59.283Z,48.16
2023-05-05T06:45:26.894Z,47.78
2023-05-05T06:47:53.882Z,48.16
2023-05-05T06:50:22.516Z,48.44
2023-05-05T06:52:49.711Z,48.00
2023-05-05T06:55:17.038Z,46.97
2023-05-05T06:57:43.997Z,46.39
2023-05-05T07:00:13.927Z,46.61
2023-05-05T07:02:41.724Z,47.09
2023-05-05T07:05:09.514Z,47.02
2023-05-05T07:07:38.861Z,46.68
2023-05-05T07:10:07.689Z,48.39
2023-05-05T07:12:34.630Z,48.28
2023-05-05T07:15:12.195Z,46.93
2023-05-05T07:17:46.437Z,47.00
2023-05-05T07:20:13.929Z,46.80
2023-05-05T07:22:42.397Z,46.59
2023-05-05T07:25:09.596Z,47.07
2023-05-05T07:27:37.427Z,46.98
2023-05-05T07:30:10.166Z,46.70
2023-05-05T07:32:40.027Z,46.07
2023-05-05T07:35:07.896Z,45.93
2023-05-05T07:37:34.820Z,46.31
2023-05-05T07:40:04.252Z,46.05
2023-05-05T07:42:31.252Z,46.34
2023-05-05T07:44:58.539Z,45.87
2023-05-05T07:47:25.916Z,45.70
2023-05-05T07:49:53.985Z,46.40
2023-05-05T07:52:30.065Z,46.13
2023-05-05T07:55:06.804Z,46.15
2023-05-05T07:57:33.866Z,44.63
2023-05-05T08:00:01.189Z,45.36
2023-05-05T08:02:28.553Z,45.09
2023-05-05T08:04:55.907Z,44.64
2023-05-05T08:07:22.992Z,44.57
2023-05-05T08:09:50.263Z,44.84
2023-05-05T08:12:19.475Z,44.31
2023-05-05T08:17:13.516Z,44.65
2023-05-05T08:19:40.787Z,43.64
2023-05-05T08:22:08.125Z,44.42
2023-05-05T08:24:35.410Z,44.28
2023-05-05T08:27:02.707Z,43.91
2023-05-05T08:29:31.406Z,43.72
2023-05-05T08:31:58.468Z,43.83
2023-05-05T08:34:26.004Z,43.16
2023-05-05T08:36:53.023Z,43.19
2023-05-05T08:39:20.331Z,43.37
2023-05-05T08:41:47.349Z,43.33
2023-05-05T08:44:15.007Z,43.54
2023-05-05T08:46:43.658Z,43.41
2023-05-05T08:49:16.163Z,42.87
2023-05-05T08:51:45.433Z,43.03
2023-05-05T08:54:17.817Z,42.46
2023-05-05T08:56:46.980Z,41.90
2023-05-05T08:59:15.988Z,41.98
2023-05-05T09:01:45.053Z,41.47
2023-05-05T09:04:12.591Z,41.91
2023-05-05T09:06:40.486Z,42.12
2023-05-05T09:09:09.221Z,42.12
2023-05-05T09:11:37.676Z,42.38
2023-05-05T09:14:04.980Z,42.18
2023-05-05T09:16:32.268Z,41.28
2023-05-05T09:19:04.741Z,41.51
2023-05-05T09:21:32.395Z,41.46
2023-05-05T09:24:09.077Z,41.43
2023-05-05T09:26:38.988Z,41.55
2023-05-05T09:29:06.742Z,40.65
2023-05-05T09:31:35.269Z,40.15
2023-05-05T09:34:14.115Z,40.38
2023-05-05T09:36:47.418Z,39.84
2023-05-05T09:39:16.661Z,39.90
2023-05-05T09:41:44.512Z,39.63
2023-05-05T09:44:12.631Z,39.68
2023-05-05T09:46:49.977Z,40.10
2023-05-05T09:49:25.267Z,39.85
2023-05-05T09:51:53.425Z,39.63
2023-05-05T09:54:24.951Z,39.81
2023-05-05T09:56:52.386Z,39.74
2023-05-05T09:59:20.584Z,39.54
2023-05-05T10:01:48.802Z,39.84
2023-05-05T10:04:25.336Z,40.15
2023-05-05T10:06:52.308Z,39.57
2023-05-05T10:09:21.007Z,39.77
2023-05-05T10:11:48.671Z,39.73
2023-05-05T10:14:20.592Z,39.45
2023-05-05T10:16:50.641Z,38.56
2023-05-05T10:19:19.492Z,36.22
2023-05-05T10:21:50.625Z,35.41
2023-05-05T10:24:26.031Z,36.27
2023-05-05T10:26:54.396Z,36.68
2023-05-05T10:29:28.356Z,38.33
2023-05-05T10:32:12.036Z,37.15
2023-05-05T10:34:53.487Z,36.81
2023-05-05T10:37:22.903Z,38.10
2023-05-05T10:39:52.685Z,38.48
2023-05-05T10:42:20.152Z,37.15
2023-05-05T10:44:49.153Z,37.51
2023-05-05T10:47:16.842Z,36.07
2023-05-05T10:49:49.409Z,35.64
2023-05-05T10:52:26.143Z,35.62
2023-05-05T10:55:01.482Z,35.21
2023-05-05T10:57:29.759Z,35.21
2023-05-05T10:59:57.066Z,35.59
2023-05-05T11:02:25.874Z,36.55
2023-05-05T11:05:07.264Z,36.53
2023-05-05T11:07:35.953Z,36.38
2023-05-05T11:10:05.201Z,36.21
2023-05-05T11:12:34.636Z,36.02
2023-05-05T11:15:37.597Z,35.85
2023-05-05T11:18:07.783Z,35.46
2023-05-05T11:21:03.683Z,34.46
2023-05-05T11:23:32.172Z,34.39
2023-05-05T11:26:00.048Z,34.58
2023-05-05T11:28:30.836Z,33.13
2023-05-05T11:31:18.010Z,34.66
2023-05-05T11:33:45.301Z,34.49
2023-05-05T11:36:13.720Z,34.44
2023-05-05T11:39:00.478Z,33.95
2023-05-05T11:41:41.769Z,34.43
2023-05-05T11:44:10.308Z,34.88
2023-05-05T11:46:37.872Z,35.03
2023-05-05T11:49:04.923Z,35.39
2023-05-05T11:51:32.409Z,34.81
2023-05-05T11:54:01.046Z,35.41
2023-05-05T11:56:29.267Z,35.01
2023-05-05T11:59:08.664Z,34.24
2023-05-05T12:01:39.244Z,34.47
2023-05-05T12:04:07.011Z,34.95
2023-05-05T12:06:34.415Z,34.72
2023-05-05T12:09:04.029Z,35.89
2023-05-05T12:11:31.572Z,35.78
2023-05-05T12:14:09.278Z,36.06
2023-05-05T12:16:36.821Z,36.01
2023-05-05T12:19:05.872Z,36.30
2023-05-05T12:21:33.509Z,36.34
2023-05-05T12:24:02.131Z,36.13
2023-05-05T12:26:30.928Z,36.02
2023-05-05T12:28:58.113Z,35.82
2023-05-05T12:31:35.659Z,36.01
2023-05-05T12:34:03.598Z,35.73
2023-05-05T12:36:32.879Z,34.77
2023-05-05T12:38:59.863Z,35.08
2023-05-05T12:41:29.989Z,35.13
2023-05-05T12:43:58.276Z,35.26
2023-05-05T12:46:26.598Z,35.30
2023-05-05T12:49:01.613Z,36.11
2023-05-05T12:51:28.932Z,35.67
2023-05-05T12:54:03.493Z,34.88
2023-05-05T12:56:36.762Z,34.43
2023-05-05T12:59:05.408Z,34.87
2023-05-05T13:01:33.417Z,34.65
2023-05-05T13:04:10.923Z,34.37
2023-05-05T13:06:38.837Z,32.79
2023-05-05T13:09:07.090Z,32.78
2023-05-05T13:11:39.404Z,32.13
2023-05-05T13:14:07.633Z,32.75
2023-05-05T13:16:34.797Z,31.32
2023-05-05T13:19:01.799Z,32.09
2023-05-05T13:21:29.047Z,32.41
2023-05-05T13:24:08.126Z,32.57
2023-05-05T13:26:41.168Z,33.10
2023-05-05T13:29:08.144Z,33.43
2023-05-05T13:31:35.649Z,32.84
2023-05-05T13:34:02.876Z,32.75
2023-05-05T13:36:30.126Z,33.11
2023-05-05T13:38:57.111Z,32.70
2023-05-05T13:41:24.575Z,32.19
2023-05-05T13:43:53.227Z,32.00
2023-05-05T13:46:20.554Z,31.90
2023-05-05T13:48:48.024Z,31.89
2023-05-05T13:51:16.378Z,32.20
2023-05-05T13:53:46.558Z,32.27
2023-05-05T13:56:14.452Z,32.97
2023-05-05T13:58:42.482Z,32.83
2023-05-05T14:01:11.777Z,32.76
2023-05-05T14:03:39.759Z,32.15
2023-05-05T14:06:09.106Z,32.65
2023-05-05T14:08:36.377Z,32.66
2023-05-05T14:11:03.758Z,32.49
2023-05-05T14:13:31.594Z,32.38
2023-05-05T14:15:58.760Z,31.22
2023-05-05T14:18:28.106Z,32.80
2023-05-05T14:20:55.557Z,32.79
2023-05-05T14:23:22.610Z,32.90
2023-05-05T14:25:49.868Z,32.38
2023-05-05T14:28:17.149Z,32.76
2023-05-05T14:30:44.494Z,32.98
2023-05-05T14:33:11.557Z,33.10
2023-05-05T14:35:40.386Z,32.95
2023-05-05T14:38:07.178Z,33.39
2023-05-05T14:40:34.693Z,33.37
2023-05-05T14:43:03.377Z,32.81
2023-05-05T14:45:31.828Z,33.41
2023-05-05T14:47:58.845Z,33.90
2023-05-05T14:50:26.334Z,34.09
2023-05-05T14:52:54.619Z,34.23
2023-05-05T14:55:21.958Z,34.56
2023-05-05T14:57:48.867Z,35.15
2023-05-05T15:00:16.964Z,35.02
2023-05-05T15:02:44.230Z,34.88
2023-05-05T15:05:11.796Z,34.83
2023-05-05T15:07:40.115Z,34.64
2023-05-05T15:10:09.468Z,34.95
2023-05-05T15:12:36.541Z,34.76
2023-05-05T15:15:04.417Z,34.82
2023-05-05T15:17:31.866Z,35.06
2023-05-05T15:19:59.370Z,35.15
2023-05-05T15:22:26.405Z,35.38
2023-05-05T15:24:53.568Z,35.76
2023-05-05T15:27:21.912Z,35.87
2023-05-05T15:29:49.153Z,35.55
2023-05-05T15:32:16.456Z,35.60
2023-05-05T15:34:45.464Z,35.85
2023-05-05T15:37:12.407Z,35.74
2023-05-05T15:39:39.705Z,35.79
2023-05-05T15:42:06.857Z,35.97
2023-05-05T15:44:35.670Z,35.98
2023-05-05T15:47:02.576Z,35.68
2023-05-05T15:49:29.972Z,35.77
2023-05-05T15:51:57.074Z,35.73
2023-05-05T15:54:24.278Z,35.90
2023-05-05T15:56:53.747Z,35.94
2023-05-05T15:59:21.027Z,35.83
2023-05-05T16:01:49.473Z,35.97
2023-05-05T16:04:16.864Z,36.08
2023-05-05T16:06:43.894Z,36.30
2023-05-05T16:09:11.383Z,36.31
2023-05-05T16:11:39.570Z,36.45
2023-05-05T16:14:06.844Z,36.50
2023-05-05T16:16:34.012Z,36.24
2023-05-05T16:19:02.671Z,36.24
2023-05-05T16:21:29.607Z,36.22
2023-05-05T16:23:57.048Z,36.43
2023-05-05T16:26:23.993Z,36.78
2023-05-05T16:28:54.296Z,36.84
2023-05-05T16:31:21.482Z,37.11
2023-05-05T16:33:48.871Z,37.15
2023-05-05T16:36:17.151Z,37.13
2023-05-05T16:38:44.464Z,37.33
2023-05-05T16:41:11.760Z,37.54
2023-05-05T16:43:39.201Z,37.97
2023-05-05T16:46:06.598Z,38.02
2023-05-05T16:48:34.166Z,37.97
2023-05-05T16:51:01.155Z,37.67
2023-05-05T16:53:32.877Z,38.12
2023-05-05T16:56:00.454Z,38.16
2023-05-05T16:58:30.521Z,38.29
2023-05-05T17:01:02.000Z,38.32
2023-05-05T17:03:31.488Z,38.34
2023-05-05T17:05:58.743Z,38.31
2023-05-05T17:08:30.994Z,37.97
2023-05-05T17:11:00.517Z,38.00
2023-05-05T17:13:27.878Z,38.07
2023-05-05T17:15:56.671Z,38.29
2023-05-05T17:18:25.942Z,38.59
2023-05-05T17:20:55.182Z,38.70
2023-05-05T17:23:22.413Z,39.21
2023-05-05T17:25:49.455Z,39.63
2023-05-05T17:28:18.078Z,39.80
2023-05-05T17:30:45.174Z,40.26
2023-05-05T17:33:19.167Z,40.63
2023-05-05T17:35:49.791Z,40.52
2023-05-05T17:38:17.715Z,40.84
2023-05-05T17:40:45.156Z,41.21
2023-05-05T17:43:12.634Z,41.64
2023-05-05T17:45:42.327Z,41.53
2023-05-05T17:48:09.702Z,41.90
2023-05-05T17:50:36.807Z,41.75
2023-05-05T17:53:04.943Z,41.91
2023-05-05T17:55:32.193Z,42.33
2023-05-05T17:57:59.492Z,42.69
2023-05-05T18:00:26.633Z,42.44
2023-05-05T18:02:55.399Z,42.89
2023-05-05T18:05:22.928Z,42.91
2023-05-05T18:07:50.374Z,43.00
2023-05-05T18:10:17.430Z,42.90
2023-05-05T18:12:45.149Z,43.44
2023-05-05T18:15:12.512Z,43.62
2023-05-05T18:17:40.442Z,43.24
2023-05-05T18:20:10.423Z,43.49
2023-05-05T18:22:38.033Z,43.83
2023-05-05T18:25:07.988Z,44.01
2023-05-05T18:27:36.151Z,43.91
2023-05-05T18:30:04.841Z,43.99
2023-05-05T18:32:32.432Z,44.39
2023-05-05T18:34:59.452Z,44.40
2023-05-05T18:37:28.236Z,44.44
2023-05-05T18:39:55.200Z,44.72
2023-05-05T18:42:23.600Z,44.55
2023-05-05T18:44:50.446Z,44.62
2023-05-05T18:47:17.594Z,44.76
2023-05-05T18:49:45.470Z,44.73
2023-05-05T18:52:13.501Z,44.99
2023-05-05T18:54:41.805Z,45.10
2023-05-05T18:57:09.469Z,45.16
2023-05-05T18:59:36.596Z,45.40
2023-05-05T19:02:04.025Z,45.52
2023-05-05T19:04:32.701Z,45.58
2023-05-05T19:07:00.293Z,45.80
2023-05-05T19:09:27.722Z,45.79
2023-05-05T19:11:56.405Z,46.03
2023-05-05T19:14:23.514Z,46.04
2023-05-05T19:16:51.156Z,46.36
2023-05-05T19:19:18.206Z,46.44
2023-05-05T19:21:45.525Z,46.59
2023-05-05T19:24:12.676Z,47.02
2023-05-05T19:26:40.218Z,46.92
2023-05-05T19:29:08.948Z,47.16
2023-05-05T19:31:36.833Z,47.36
2023-05-05T19:34:05.280Z,47.35
2023-05-05T19:36:32.696Z,47.31
2023-05-05T19:39:01.682Z,47.54
2023-05-05T19:41:28.990Z,47.70
2023-05-05T19:43:56.267Z,48.04
2023-05-05T19:46:27.662Z,48.03
2023-05-05T19:48:54.835Z,48.21
2023-05-05T19:51:22.252Z,48.25
2023-05-05T19:53:50.222Z,48.47
2023-05-05T19:56:17.899Z,48.70
2023-05-05T19:58:56.193Z,48.85
2023-05-05T20:01:25.371Z,48.75
2023-05-05T20:03:54.528Z,49.00
2023-05-05T20:06:22.624Z,49.04
2023-05-05T20:08:49.554Z,49.35
2023-05-05T20:11:17.495Z,49.26
2023-05-05T20:13:47.506Z,49.43
2023-05-05T20:16:15.154Z,49.62
2023-05-05T20:18:43.716Z,49.80
2023-05-05T20:21:11.134Z,49.94
2023-05-05T20:23:38.277Z,50.12
2023-05-05T20:26:05.730Z,50.09
2023-05-05T20:28:32.801Z,50.18
2023-05-05T20:31:03.381Z,50.29
2023-05-05T20:33:30.318Z,50.43
2023-05-05T20:36:01.117Z,50.54
2023-05-05T20:38:28.037Z,50.42
2023-05-05T20:40:55.851Z,50.48
2023-05-05T20:43:24.234Z,50.74
2023-05-05T20:45:51.703Z,50.87
2023-05-05T20:48:19.123Z,50.91
2023-05-05T20:50:46.039Z,50.98
2023-05-05T20:53:20.908Z,51.36
2023-05-05T20:55:48.040Z,51.49
2023-05-05T20:58:15.402Z,51.59
2023-05-05T21:00:42.438Z,51.56
2023-05-05T21:03:09.904Z,51.94
2023-05-05T21:05:37.305Z,51.92
2023-05-05T21:08:05.728Z,52.13
2023-05-05T21:10:34.450Z,52.14
2023-05-05T21:13:02.558Z,52.22
2023-05-05T21:15:29.885Z,52.29
2023-05-05T21:17:57.423Z,52.38
2023-05-05T21:20:24.731Z,52.55
2023-05-05T21:22:51.982Z,52.56
2023-05-05T21:25:20.955Z,52.90
2023-05-05T21:27:49.926Z,52.81
2023-05-05T21:30:17.625Z,52.90
2023-05-05T21:32:45.676Z,52.89
2023-05-05T21:35:12.790Z,53.02
2023-05-05T21:37:40.700Z,53.18
2023-05-05T21:40:13.231Z,53.36
2023-05-05T21:42:41.249Z,53.65
2023-05-05T21:45:10.943Z,53.43
2023-05-05T21:47:38.539Z,53.66
2023-05-05T21:50:06.976Z,53.69
2023-05-05T21:52:34.276Z,53.61
2023-05-05T21:55:01.562Z,53.76
2023-05-05T21:57:28.862Z,53.76
2023-05-05T21:59:55.926Z,53.98
2023-05-05T22:02:24.645Z,54.13
2023-05-05T22:04:51.939Z,54.05
2023-05-05T22:07:19.167Z,54.36
2023-05-05T22:09:46.193Z,54.33
2023-05-05T22:12:13.727Z,54.46
2023-05-05T22:14:40.895Z,54.45
2023-05-05T22:17:08.207Z,54.65
2023-05-05T22:19:36.514Z,54.65
2023-05-05T22:22:03.966Z,54.69
2023-05-05T22:24:31.084Z,54.61
2023-05-05T22:26:58.601Z,54.67
2023-05-05T22:29:25.670Z,54.80
2023-05-05T22:31:53.117Z,54.82
2023-05-05T22:34:21.742Z,55.13
2023-05-05T22:36:50.331Z,55.10
2023-05-05T22:39:18.529Z,55.23
2023-05-05T22:41:46.238Z,55.16
2023-05-05T22:44:18.521Z,55.70
2023-05-05T22:46:45.888Z,55.76
2023-05-05T22:49:14.017Z,55.86
2023-05-05T22:51:41.377Z,55.61
2023-05-05T22:54:09.811Z,55.59
2023-05-05T22:56:39.767Z,55.72
2023-05-05T22:59:06.838Z,55.81
2023-05-05T23:01:34.728Z,55.97
2023-05-05T23:04:01.718Z,55.86
2023-05-05T23:06:29.662Z,56.05
2023-05-05T23:08:56.599Z,55.99
2023-05-05T23:11:26.126Z,55.99
2023-05-05T23:13:53.532Z,55.99
2023-05-05T23:16:20.846Z,55.93
2023-05-05T23:18:47.851Z,56.06
2023-05-05T23:21:14.950Z,56.06
2023-05-05T23:23:42.103Z,56.12
2023-05-05T23:26:13.574Z,56.25
2023-05-05T23:28:42.014Z,56.70
2023-05-05T23:31:09.253Z,56.85
2023-05-05T23:33:36.345Z,56.80
2023-05-05T23:36:04.505Z,56.69
2023-05-05T23:38:31.516Z,56.67
2023-05-05T23:40:58.912Z,56.75
2023-05-05T23:43:26.016Z,56.94
2023-05-05T23:45:54.578Z,57.00
2023-05-05T23:48:21.880Z,57.06
2023-05-05T23:50:49.482Z,57.10
2023-05-05T23:53:16.608Z,57.21
2023-05-05T23:55:43.906Z,57.27
2023-05-05T23:58:10.960Z,57.54
